Time;durP1;ratioP1;P1;durP2;ratioP2;P2;SDS_P1;SDS_P2;PMS_P1;PMS_P2;Temp;Humidity;BMP_temperature;BMP_pressure;BME280_temperature;BME280_humidity;BME280_pressure;Samples;Min_cycle;Max_cycle;Signal;HPM_P1;HPM_P2
2023/05/24 00:00:18;;;;;;;2.13;1.25;;;;;;;25.67;37.84;102385.78;5010496;28;98878;-74
2023/05/24 00:02:44;;;;;;;2.92;1.20;;;;;;;25.67;37.40;102380.28;5013033;28;96730;-74
2023/05/24 00:05:13;;;;;;;2.60;1.08;;;;;;;25.67;37.81;102373.91;5011257;28;96826;-74
2023/05/24 00:07:40;;;;;;;3.20;1.25;;;;;;;25.65;37.65;102379.56;5011281;28;100304;-74
2023/05/24 00:10:07;;;;;;;2.55;1.00;;;;;;;25.66;37.53;102373.06;5013176;28;98684;-74
2023/05/24 00:12:34;;;;;;;2.05;1.10;;;;;;;25.65;37.51;102371.31;5012755;28;97199;-74
2023/05/24 00:15:00;;;;;;;2.05;1.20;;;;;;;25.65;37.54;102369.44;5012629;28;97092;-74
2023/05/24 00:17:29;;;;;;;1.60;0.98;;;;;;;25.64;37.64;102364.09;5011922;28;96802;-74
2023/05/24 00:19:55;;;;;;;2.58;1.38;;;;;;;25.64;37.59;102364.09;5011357;28;97101;-74
2023/05/24 00:22:22;;;;;;;1.98;1.02;;;;;;;25.63;37.31;102357.72;5013018;28;96675;-74
2023/05/24 00:24:49;;;;;;;2.10;1.10;;;;;;;25.63;37.75;102356.84;5011081;28;96690;-74
2023/05/24 00:27:15;;;;;;;1.48;0.80;;;;;;;25.63;37.70;102359.59;4994276;28;97823;-74
2023/05/24 00:29:42;;;;;;;2.58;1.13;;;;;;;25.63;37.48;102354.09;5011301;28;98430;-74
2023/05/24 00:32:09;;;;;;;2.85;1.20;;;;;;;25.63;37.70;102362.38;5000711;28;96783;-74
2023/05/24 00:34:35;;;;;;;2.63;1.20;;;;;;;25.63;38.00;102362.38;5012257;28;97115;-74
2023/05/24 00:37:03;;;;;;;2.45;1.13;;;;;;;25.61;37.41;102354.28;5011742;28;97516;-74
2023/05/24 00:39:29;;;;;;;1.55;0.80;;;;;;;25.62;37.60;102356.00;5010934;28;98227;-74
2023/05/24 00:41:56;;;;;;;2.05;1.10;;;;;;;25.62;37.43;102356.00;5010176;28;96695;-74
2023/05/24 00:44:22;;;;;;;2.47;1.00;;;;;;;25.62;37.72;102353.25;5023756;28;97249;-74
2023/05/24 00:46:49;;;;;;;2.47;1.10;;;;;;;25.60;37.56;102349.81;5012303;28;96870;-74
2023/05/24 00:49:16;;;;;;;2.30;1.08;;;;;;;25.61;37.51;102347.91;5012433;28;96705;-74
2023/05/24 00:51:44;;;;;;;1.40;0.90;;;;;;;25.60;37.48;102346.19;5011836;28;96823;-74
2023/05/24 00:54:13;;;;;;;1.88;1.10;;;;;;;25.59;37.43;102341.72;5009797;28;96791;-74
2023/05/24 00:56:42;;;;;;;2.08;1.10;;;;;;;25.58;37.39;102340.88;5010231;28;100464;-74
2023/05/24 00:59:08;;;;;;;2.55;1.00;;;;;;;25.58;37.39;102346.38;5012101;28;96662;-74
2023/05/24 01:01:37;;;;;;;1.52;0.80;;;;;;;25.58;37.45;102342.75;5010950;28;97932;-74
2023/05/24 01:04:04;;;;;;;2.95;0.90;;;;;;;25.57;37.39;102341.03;5010801;28;97325;-74
2023/05/24 01:06:44;;;;;;;2.28;0.90;;;;;;;25.57;37.37;102335.53;5010026;28;97610;-74
2023/05/24 01:09:27;;;;;;;2.22;1.17;;;;;;;25.57;37.34;102330.03;5010219;28;97776;-74
2023/05/24 01:11:57;;;;;;;3.00;1.00;;;;;;;25.55;37.44;102332.09;5011219;28;96875;-75
2023/05/24 01:14:43;;;;;;;2.45;1.00;;;;;;;25.55;37.46;102329.34;5009905;28;96883;-74
2023/05/24 01:17:22;;;;;;;2.75;1.00;;;;;;;25.52;37.44;102322.28;5009366;28;97627;-74
2023/05/24 01:19:55;;;;;;;2.00;1.10;;;;;;;25.53;37.51;102328.66;5011590;28;97280;-74
2023/05/24 01:23:07;;;;;;;1.67;0.90;;;;;;;25.52;37.57;102326.94;5010856;28;96824;-74
2023/05/24 01:25:40;;;;;;;1.90;1.27;;;;;;;25.50;37.63;102323.50;5016120;28;96800;-74
2023/05/24 01:28:10;;;;;;;2.92;0.95;;;;;;;25.49;37.35;102330.88;4993150;28;100283;-74
2023/05/24 01:30:40;;;;;;;1.48;0.80;;;;;;;25.50;37.61;102326.25;5010215;28;97627;-74
2023/05/24 01:33:07;;;;;;;2.05;0.85;;;;;;;25.49;37.23;102327.28;5011271;28;96672;-74
2023/05/24 01:35:39;;;;;;;2.20;1.10;;;;;;;25.49;37.40;102321.78;5009645;28;96768;-74
2023/05/24 01:38:06;;;;;;;1.50;0.70;;;;;;;25.49;37.38;102321.78;5011307;28;97812;-74
2023/05/24 01:40:33;;;;;;;2.22;1.10;;;;;;;25.48;37.26;102323.66;5011493;28;97180;-74
2023/05/24 01:43:21;;;;;;;2.67;0.98;;;;;;;25.49;37.31;102319.88;5010871;28;96983;-74
2023/05/24 01:46:01;;;;;;;1.80;1.00;;;;;;;25.48;37.48;102320.91;5008518;28;97258;-75
2023/05/24 01:48:44;;;;;;;2.70;0.88;;;;;;;25.48;37.24;102320.91;5009616;28;97323;-74
2023/05/24 01:51:17;;;;;;;1.70;0.98;;;;;;;25.47;37.55;102326.59;5012047;28;96742;-74
2023/05/24 01:53:46;;;;;;;2.00;1.00;;;;;;;25.46;37.35;102325.72;5008121;28;97037;-74
2023/05/24 01:56:14;;;;;;;2.30;1.00;;;;;;;25.47;37.33;102318.34;5010048;28;96648;-74
2023/05/24 01:58:44;;;;;;;1.60;0.70;;;;;;;25.46;37.24;102327.63;5008720;28;100834;-74
2023/05/24 02:01:12;;;;;;;1.77;0.90;;;;;;;25.46;37.43;102322.97;5020730;28;100116;-74
2023/05/24 02:03:39;;;;;;;1.75;0.90;;;;;;;25.46;37.45;102319.38;5010246;28;96951;-74
2023/05/24 02:06:07;;;;;;;1.88;0.80;;;;;;;25.45;37.30;102323.16;5011311;28;96752;-74
2023/05/24 02:08:33;;;;;;;1.30;0.70;;;;;;;25.45;37.31;102324.00;5009799;28;97005;-74
2023/05/24 02:11:00;;;;;;;1.95;1.05;;;;;;;25.45;37.36;102320.41;5008917;28;99054;-74
2023/05/24 02:13:27;;;;;;;2.28;1.17;;;;;;;25.45;37.16;102323.16;5010770;28;97104;-74
2023/05/24 02:15:53;;;;;;;1.65;0.90;;;;;;;25.45;37.29;102323.16;5009923;28;96853;-74
2023/05/24 02:18:21;;;;;;;2.22;0.95;;;;;;;25.44;37.18;102322.28;4992661;28;100977;-74
2023/05/24 02:20:48;;;;;;;1.85;1.08;;;;;;;25.45;37.09;102331.41;5010541;28;97227;-74
2023/05/24 02:23:14;;;;;;;1.30;0.80;;;;;;;25.44;37.42;102333.28;5010144;28;96669;-74
2023/05/24 02:25:41;;;;;;;1.40;0.70;;;;;;;25.44;37.00;102341.53;5010517;28;97288;-74
2023/05/24 02:28:08;;;;;;;1.65;0.88;;;;;;;25.43;37.44;102339.81;5008911;28;100791;-74
2023/05/24 02:30:35;;;;;;;2.35;1.10;;;;;;;25.44;37.16;102335.19;5008738;28;100165;-74
2023/05/24 02:33:01;;;;;;;2.10;1.17;;;;;;;25.42;37.39;102335.34;5011308;28;96743;-74
2023/05/24 02:35:28;;;;;;;1.30;0.77;;;;;;;25.43;37.20;102328.81;5010974;28;97510;-74
2023/05/24 02:37:57;;;;;;;1.63;0.80;;;;;;;25.42;37.25;102323.50;4999627;28;96758;-74
2023/05/24 02:40:24;;;;;;;2.35;0.82;;;;;;;25.42;37.33;102329.84;5011105;28;97263;-74
2023/05/24 02:42:51;;;;;;;1.40;0.70;;;;;;;25.42;37.20;102329.00;5011499;28;96817;-74
2023/05/24 02:45:17;;;;;;;1.45;0.70;;;;;;;25.41;37.21;102330.88;5008664;28;96977;-74
2023/05/24 02:47:45;;;;;;;1.67;0.88;;;;;;;25.41;36.94;102327.28;5010102;28;97079;-74
2023/05/24 02:50:12;;;;;;;1.65;0.80;;;;;;;25.41;37.22;102330.03;5009899;28;98065;-74
2023/05/24 02:52:38;;;;;;;1.67;0.80;;;;;;;25.40;37.28;102325.56;5010467;28;96975;-74
2023/05/24 02:55:06;;;;;;;4.20;1.15;;;;;;;25.39;37.21;102335.69;5008407;28;96781;-74
2023/05/24 02:57:33;;;;;;;1.48;0.80;;;;;;;25.40;37.65;102336.56;5008357;28;98093;-74
2023/05/24 03:00:00;;;;;;;1.20;0.77;;;;;;;25.39;37.06;102330.19;5008383;28;99916;-74
2023/05/24 03:02:28;;;;;;;1.85;1.00;;;;;;;25.39;37.17;102340.34;5009205;28;96748;-74
2023/05/24 03:04:55;;;;;;;1.75;0.77;;;;;;;25.39;36.87;102337.59;5008386;28;97299;-74
2023/05/24 03:07:22;;;;;;;2.33;0.93;;;;;;;25.39;37.16;102338.44;5008716;28;100763;-74
2023/05/24 03:09:48;;;;;;;2.13;1.00;;;;;;;25.38;36.85;102331.22;5002815;28;99690;-74
2023/05/24 03:12:15;;;;;;;1.20;0.88;;;;;;;25.38;37.08;102336.72;5001438;28;96739;-74
2023/05/24 03:14:42;;;;;;;1.38;0.80;;;;;;;25.37;37.12;102335.00;5008513;28;96659;-74
2023/05/24 03:17:08;;;;;;;2.22;1.00;;;;;;;25.38;37.17;102327.63;5015728;28;97788;-74
2023/05/24 03:19:36;;;;;;;1.63;0.80;;;;;;;25.37;37.40;102329.50;5010483;28;96867;-75
2023/05/24 03:22:02;;;;;;;2.15;0.90;;;;;;;25.37;37.06;102329.50;5009758;28;96884;-74
2023/05/24 03:24:29;;;;;;;2.72;1.10;;;;;;;25.36;37.15;102333.28;4990872;28;96927;-74
2023/05/24 03:26:55;;;;;;;1.50;0.98;;;;;;;25.35;37.45;102323.31;5007611;28;99653;-74
2023/05/24 03:29:22;;;;;;;1.83;0.82;;;;;;;25.36;37.01;102325.03;4994471;28;100270;-74
2023/05/24 03:31:51;;;;;;;1.48;0.60;;;;;;;25.34;37.06;102322.44;5007788;28;96853;-74
2023/05/24 03:34:17;;;;;;;2.05;1.02;;;;;;;25.33;36.95;102306.97;5007049;28;96803;-74
2023/05/24 03:36:44;;;;;;;1.20;0.60;;;;;;;25.34;36.81;102308.69;5010649;28;96815;-74
2023/05/24 03:39:11;;;;;;;2.40;1.13;;;;;;;25.33;37.08;102298.72;5010017;28;96679;-74
2023/05/24 03:42:13;;;;;;;2.22;0.80;;;;;;;25.31;37.06;102303.53;4946220;28;97165;-74
2023/05/24 03:44:39;;;;;;;1.55;0.80;;;;;;;25.32;37.19;102305.25;4998796;28;97384;-74
2023/05/24 03:47:06;;;;;;;2.25;0.80;;;;;;;25.31;36.84;102308.19;4994392;28;99120;-74
2023/05/24 03:49:33;;;;;;;1.70;0.80;;;;;;;25.31;37.07;102313.69;5012221;28;100140;-74
2023/05/24 03:52:00;;;;;;;1.73;0.90;;;;;;;25.31;37.17;102319.19;5012170;28;96737;-74
2023/05/24 03:54:26;;;;;;;1.10;0.68;;;;;;;25.30;37.02;102310.06;5013598;28;96846;-74
2023/05/24 03:56:53;;;;;;;2.40;1.20;;;;;;;25.31;36.77;102311.78;5011919;28;101000;-74
2023/05/24 03:59:21;;;;;;;2.22;0.80;;;;;;;25.31;36.94;102303.53;5011549;28;99467;-74
2023/05/24 04:01:47;;;;;;;1.77;0.70;;;;;;;25.30;36.94;102307.31;5011029;28;96867;-74
2023/05/24 04:04:14;;;;;;;1.77;0.90;;;;;;;25.30;36.76;102304.56;5013035;28;96733;-74
2023/05/24 04:06:41;;;;;;;2.55;0.80;;;;;;;25.30;36.78;102300.97;5012524;28;97868;-74
2023/05/24 04:09:08;;;;;;;1.83;0.80;;;;;;;25.29;36.98;102305.59;5011044;28;97725;-74
2023/05/24 04:11:35;;;;;;;2.25;1.05;;;;;;;25.29;37.31;102305.59;5016157;28;96777;-74
2023/05/24 04:14:02;;;;;;;1.85;0.90;;;;;;;25.29;36.90;102302.84;5012982;28;97017;-74
2023/05/24 04:16:32;;;;;;;1.63;0.98;;;;;;;25.29;37.31;102310.25;5010782;28;96862;-74
2023/05/24 04:19:03;;;;;;;1.45;0.85;;;;;;;25.29;37.14;102313.84;5011712;28;97536;-74
2023/05/24 04:21:30;;;;;;;2.22;1.50;;;;;;;25.29;37.09;102315.75;5011047;28;97253;-74
2023/05/24 04:24:00;;;;;;;2.00;0.80;;;;;;;25.29;37.09;102308.34;5008166;28;97702;-74
2023/05/24 04:26:27;;;;;;;2.50;1.08;;;;;;;25.29;37.04;102313.84;4993592;28;99201;-74
2023/05/24 04:28:53;;;;;;;1.35;0.80;;;;;;;25.28;36.86;102309.38;5012104;28;97106;-74
2023/05/24 04:31:20;;;;;;;2.33;0.80;;;;;;;25.29;36.85;102310.25;5011084;28;96947;-74
2023/05/24 04:33:47;;;;;;;1.50;0.70;;;;;;;25.28;37.00;102312.13;5018801;28;96693;-74
2023/05/24 04:36:15;;;;;;;1.50;0.80;;;;;;;25.29;36.91;102322.09;5011218;28;96825;-74
2023/05/24 04:38:41;;;;;;;2.53;1.00;;;;;;;25.28;36.96;102314.88;5007553;28;97299;-75
2023/05/24 04:41:09;;;;;;;1.83;0.80;;;;;;;25.28;36.71;102314.88;5005949;28;96746;-74
2023/05/24 04:43:35;;;;;;;1.67;0.90;;;;;;;25.28;36.94;102317.63;5012582;28;97018;-74
2023/05/24 04:46:02;;;;;;;1.95;0.95;;;;;;;25.28;36.98;102328.63;5008618;28;96822;-74
2023/05/24 04:48:29;;;;;;;1.63;1.00;;;;;;;25.27;36.85;102324.16;5010354;28;97445;-74
2023/05/24 04:50:59;;;;;;;2.10;0.80;;;;;;;25.28;36.68;102334.13;5012240;28;97320;-75
2023/05/24 04:53:26;;;;;;;2.03;0.70;;;;;;;25.27;36.84;102343.41;5011404;28;97191;-74
2023/05/24 04:55:52;;;;;;;1.25;0.70;;;;;;;25.27;37.02;102337.91;5010578;28;98736;-74
2023/05/24 04:58:19;;;;;;;2.20;0.82;;;;;;;25.28;36.78;102339.63;5012169;28;97368;-74
2023/05/24 05:00:46;;;;;;;1.27;0.70;;;;;;;25.28;36.90;102344.28;5012577;28;96675;-74
2023/05/24 05:03:12;;;;;;;1.20;0.70;;;;;;;25.27;36.83;102337.91;5012544;28;96744;-74
2023/05/24 05:05:39;;;;;;;2.00;0.80;;;;;;;25.27;37.05;102343.41;5011794;28;98267;-74
2023/05/24 05:08:06;;;;;;;1.75;0.90;;;;;;;25.27;36.95;102343.41;5010687;28;97594;-74
2023/05/24 05:10:32;;;;;;;1.25;0.73;;;;;;;25.27;36.74;102342.56;5012049;28;96722;-74
2023/05/24 05:12:59;;;;;;;1.95;0.70;;;;;;;25.28;36.67;102336.03;5010475;28;96852;-74
2023/05/24 05:15:25;;;;;;;3.70;0.90;;;;;;;25.28;36.86;102341.53;5008991;28;100493;-74
2023/05/24 05:17:52;;;;;;;3.60;1.05;;;;;;;25.27;36.79;102343.41;5011760;28;96776;-74
2023/05/24 05:20:18;;;;;;;2.00;0.85;;;;;;;25.27;36.79;102337.06;5010581;28;96764;-74
2023/05/24 05:22:46;;;;;;;2.30;0.80;;;;;;;25.28;37.03;102338.78;5011324;28;97270;-75
2023/05/24 05:25:13;;;;;;;1.58;0.63;;;;;;;25.27;36.66;102335.16;5011064;28;96895;-74
2023/05/24 05:27:40;;;;;;;2.15;1.00;;;;;;;25.28;36.75;102333.28;5011120;28;96739;-74
2023/05/24 05:30:07;;;;;;;1.55;0.70;;;;;;;25.27;36.75;102337.91;5010729;28;97189;-75
2023/05/24 05:32:35;;;;;;;1.70;0.88;;;;;;;25.27;36.62;102340.66;5012289;28;96892;-74
2023/05/24 05:35:02;;;;;;;1.23;0.82;;;;;;;25.28;36.80;102345.13;5011012;28;96838;-74
2023/05/24 05:37:29;;;;;;;1.60;1.00;;;;;;;25.29;36.84;102340.50;5010776;28;97457;-74
2023/05/24 05:39:56;;;;;;;1.85;0.85;;;;;;;25.27;36.80;102334.31;5002061;28;97646;-74
2023/05/24 05:42:23;;;;;;;1.55;0.70;;;;;;;25.28;36.80;102341.53;5011651;28;96734;-73
2023/05/24 05:44:49;;;;;;;2.05;0.90;;;;;;;25.28;36.74;102336.03;5009038;28;99876;-73
2023/05/24 05:47:16;;;;;;;1.48;0.80;;;;;;;25.27;36.71;102326.91;5010710;28;97181;-73
2023/05/24 05:49:42;;;;;;;2.05;0.75;;;;;;;25.27;36.65;102332.41;5017505;28;96637;-73
2023/05/24 05:52:09;;;;;;;1.52;0.85;;;;;;;25.27;36.71;102335.16;5011474;28;97064;-73
2023/05/24 05:54:35;;;;;;;1.40;0.68;;;;;;;25.27;36.87;102335.16;5009377;28;97556;-73
2023/05/24 05:57:02;;;;;;;2.05;0.90;;;;;;;25.28;36.86;102331.38;5009906;28;97825;-73
2023/05/24 05:59:29;;;;;;;1.90;0.75;;;;;;;25.28;36.67;102339.63;5008887;28;97074;-73
2023/05/24 06:01:55;;;;;;;1.92;0.95;;;;;;;25.29;36.81;102340.50;5008308;28;97179;-73
2023/05/24 06:04:22;;;;;;;2.25;0.90;;;;;;;25.28;36.89;102336.88;5008586;28;97588;-73
2023/05/24 06:06:48;;;;;;;2.50;0.75;;;;;;;25.29;36.81;102343.25;4997796;28;97442;-74
2023/05/24 06:09:15;;;;;;;1.50;0.70;;;;;;;25.29;36.68;102338.59;5010168;28;96686;-73
2023/05/24 06:11:43;;;;;;;1.63;0.90;;;;;;;25.28;36.42;102339.63;5009486;28;96974;-74
2023/05/24 06:14:12;;;;;;;0.90;0.52;;;;;;;25.29;36.60;102338.59;5009805;28;96774;-74
2023/05/24 06:16:53;;;;;;;1.50;0.70;;;;;;;25.30;36.71;102347.72;5010295;28;97426;-76
2023/05/24 06:19:35;;;;;;;1.48;0.90;;;;;;;25.29;36.80;102351.50;4990972;28;97029;-74
2023/05/24 06:22:02;;;;;;;2.08;0.80;;;;;;;25.29;36.91;102357.84;5007318;28;96866;-73
2023/05/24 06:24:28;;;;;;;2.47;1.00;;;;;;;25.29;36.53;102354.25;5005147;28;97295;-74
2023/05/24 06:26:55;;;;;;;1.90;0.93;;;;;;;25.31;36.70;102357.69;5004366;28;98612;-74
2023/05/24 06:29:23;;;;;;;1.70;1.00;;;;;;;25.31;36.41;102363.19;5007430;28;96887;-74
2023/05/24 06:31:50;;;;;;;1.50;0.98;;;;;;;25.31;36.54;102369.53;5008538;28;96876;-74
2023/05/24 06:34:19;;;;;;;2.22;0.95;;;;;;;25.32;36.82;102373.16;5008486;28;98413;-73
2023/05/24 06:36:47;;;;;;;3.00;1.00;;;;;;;25.33;36.64;102372.13;5007234;28;96950;-74
2023/05/24 06:39:15;;;;;;;1.85;1.00;;;;;;;25.32;36.48;102363.00;5005320;28;96787;-73
2023/05/24 06:41:43;;;;;;;1.30;0.80;;;;;;;25.33;36.89;102358.38;5005330;28;97613;-74
2023/05/24 06:44:09;;;;;;;2.20;1.10;;;;;;;25.33;36.85;102361.13;5007243;28;97501;-73
2023/05/24 06:46:36;;;;;;;2.95;0.90;;;;;;;25.34;36.71;102368.34;4995583;28;98853;-74
2023/05/24 06:49:03;;;;;;;1.33;0.63;;;;;;;25.33;36.84;102372.97;5009074;28;96851;-73
2023/05/24 06:51:32;;;;;;;1.75;1.10;;;;;;;25.33;36.72;102377.63;5011336;28;96616;-73
2023/05/24 06:53:58;;;;;;;2.00;1.00;;;;;;;25.34;36.53;102373.84;5004357;28;96631;-73
2023/05/24 06:56:25;;;;;;;2.30;1.15;;;;;;;25.34;36.77;102380.22;5010089;28;96836;-74
2023/05/24 06:58:52;;;;;;;3.30;1.20;;;;;;;25.34;36.60;102380.22;5009345;28;96720;-74
2023/05/24 07:01:18;;;;;;;1.55;0.82;;;;;;;25.36;36.63;102373.69;5010574;28;96774;-74
2023/05/24 07:03:45;;;;;;;2.17;0.90;;;;;;;25.36;36.84;102376.44;5008994;28;97690;-73
2023/05/24 07:06:13;;;;;;;2.42;1.10;;;;;;;25.35;36.82;102378.31;5013462;28;97058;-74
2023/05/24 07:08:43;;;;;;;2.90;1.08;;;;;;;25.37;36.86;102378.16;5009136;28;96671;-73
2023/05/24 07:11:09;;;;;;;2.17;1.08;;;;;;;25.35;36.63;102381.06;5008558;28;96916;-74
2023/05/24 07:13:36;;;;;;;1.63;1.02;;;;;;;25.37;36.50;102380.91;5008857;28;97143;-74
2023/05/24 07:16:03;;;;;;;2.22;1.17;;;;;;;25.37;36.54;102373.50;5008360;28;99710;-74
2023/05/24 07:18:30;;;;;;;1.95;0.90;;;;;;;25.36;36.59;102374.53;5001234;28;96733;-74
2023/05/24 07:20:57;;;;;;;2.58;1.40;;;;;;;25.37;36.46;102375.41;5003852;28;97164;-74
2023/05/24 07:23:23;;;;;;;3.05;1.50;;;;;;;25.37;36.57;102378.16;5010201;28;98368;-74
2023/05/24 07:25:50;;;;;;;2.60;1.10;;;;;;;25.36;36.51;102382.78;5009323;28;97423;-74
2023/05/24 07:28:18;;;;;;;2.63;1.20;;;;;;;25.36;36.60;102379.19;5009496;28;96904;-74
2023/05/24 07:30:45;;;;;;;3.05;1.67;;;;;;;25.35;36.65;102375.56;5008293;28;97230;-74
2023/05/24 07:33:12;;;;;;;1.83;0.90;;;;;;;25.37;36.65;102386.41;4992444;28;100514;-74
2023/05/24 07:35:40;;;;;;;2.13;1.08;;;;;;;25.35;36.41;102378.31;5009869;28;96722;-74
2023/05/24 07:38:07;;;;;;;2.78;1.10;;;;;;;25.37;36.80;102386.41;5010162;28;96711;-73
2023/05/24 07:40:34;;;;;;;2.78;1.10;;;;;;;25.34;36.67;102388.47;5008502;28;96653;-74
2023/05/24 07:43:00;;;;;;;3.53;1.25;;;;;;;25.36;36.59;102388.28;5009343;28;96822;-74
2023/05/24 07:45:30;;;;;;;1.90;1.08;;;;;;;25.35;36.46;102383.81;5008959;28;97528;-74
2023/05/24 07:47:56;;;;;;;2.10;1.13;;;;;;;25.37;36.51;102391.91;5008632;28;96734;-74
2023/05/24 07:50:23;;;;;;;3.10;1.25;;;;;;;25.37;36.64;102389.16;5009075;28;97560;-74
2023/05/24 07:52:50;;;;;;;2.90;1.52;;;;;;;25.36;36.54;102382.78;5008279;28;100459;-74
2023/05/24 07:55:17;;;;;;;1.70;1.00;;;;;;;25.34;36.69;102382.97;5009032;28;97419;-74
2023/05/24 07:57:43;;;;;;;1.95;1.05;;;;;;;25.35;36.63;102383.81;4991707;28;96983;-74
2023/05/24 08:00:13;;;;;;;2.40;1.25;;;;;;;25.35;36.74;102381.06;5008836;28;96739;-74
2023/05/24 08:02:41;;;;;;;2.53;1.10;;;;;;;25.34;36.58;102374.72;5009458;28;97085;-73
2023/05/24 08:05:10;;;;;;;1.90;1.10;;;;;;;25.34;36.65;102369.19;5005240;28;97377;-74
2023/05/24 08:07:37;;;;;;;2.70;1.25;;;;;;;25.34;36.90;102371.97;5004228;28;96822;-74
2023/05/24 08:10:04;;;;;;;3.55;1.40;;;;;;;25.36;36.70;102371.78;5001044;28;96864;-74
2023/05/24 08:12:31;;;;;;;1.95;1.20;;;;;;;25.35;36.65;102372.81;5015648;28;99608;-74
2023/05/24 08:14:58;;;;;;;3.63;1.23;;;;;;;25.36;36.54;102370.94;5009497;28;97371;-74
2023/05/24 08:17:25;;;;;;;2.78;1.20;;;;;;;25.37;36.54;102375.41;5009662;28;97321;-73
2023/05/24 08:19:52;;;;;;;3.20;1.45;;;;;;;25.37;36.53;102375.41;5008267;28;97921;-74
2023/05/24 08:22:18;;;;;;;2.40;1.25;;;;;;;25.36;36.72;102365.44;5025345;28;97968;-73
2023/05/24 08:24:45;;;;;;;2.85;1.38;;;;;;;25.36;36.51;102369.03;5012210;28;97349;-73
2023/05/24 08:27:12;;;;;;;2.53;1.25;;;;;;;25.37;36.79;102367.16;5012354;28;97131;-74
2023/05/24 08:29:39;;;;;;;3.50;1.60;;;;;;;25.36;36.67;102360.78;5011333;28;96961;-73
2023/05/24 08:32:08;;;;;;;3.03;1.38;;;;;;;25.38;36.53;102360.63;5012214;28;97391;-74
2023/05/24 08:34:36;;;;;;;2.40;1.20;;;;;;;25.37;36.57;102368.00;4997160;28;96772;-74
2023/05/24 08:37:03;;;;;;;3.38;1.58;;;;;;;25.37;36.34;102362.50;5011041;28;96752;-74
2023/05/24 08:39:30;;;;;;;2.30;1.27;;;;;;;25.37;36.63;102375.41;5012623;28;96878;-74
2023/05/24 08:41:58;;;;;;;2.33;1.20;;;;;;;25.37;36.47;102364.41;4993914;28;100722;-74
2023/05/24 08:44:42;;;;;;;2.80;1.40;;;;;;;25.37;36.36;102367.16;5012621;28;98109;-74
2023/05/24 08:47:09;;;;;;;2.45;1.30;;;;;;;25.37;36.56;102367.16;5012304;28;96999;-73
2023/05/24 08:49:37;;;;;;;2.58;1.45;;;;;;;25.37;36.42;102369.91;5013214;28;97144;-74
2023/05/24 08:52:06;;;;;;;3.47;1.40;;;;;;;25.37;36.63;102369.91;5010407;28;98200;-74
2023/05/24 08:54:37;;;;;;;3.58;1.40;;;;;;;25.37;36.41;102361.66;5012170;28;97325;-74
2023/05/24 08:57:05;;;;;;;2.85;1.15;;;;;;;25.37;36.41;102365.25;5011816;28;96908;-74
2023/05/24 08:59:32;;;;;;;2.30;1.38;;;;;;;25.37;36.63;102362.50;5012490;28;96940;-73
2023/05/24 09:02:00;;;;;;;2.10;1.08;;;;;;;25.37;36.67;102359.75;5012258;28;96645;-74
2023/05/24 09:04:27;;;;;;;2.50;1.33;;;;;;;25.37;36.59;102359.75;5011524;28;97174;-74
2023/05/24 09:06:55;;;;;;;2.80;1.30;;;;;;;25.38;36.38;102361.47;5012313;28;96760;-73
2023/05/24 09:09:26;;;;;;;2.67;1.27;;;;;;;25.40;36.45;102353.06;5012212;28;96853;-74
2023/05/24 09:11:57;;;;;;;2.40;1.30;;;;;;;25.40;36.56;102353.91;5012069;28;96803;-74
2023/05/24 09:14:24;;;;;;;2.72;1.25;;;;;;;25.39;36.31;102359.59;5010270;28;96758;-73
2023/05/24 09:16:51;;;;;;;3.50;1.30;;;;;;;25.39;36.38;102349.44;5010408;28;97054;-74
2023/05/24 09:19:18;;;;;;;2.25;1.30;;;;;;;25.40;36.25;102347.56;5011097;28;96583;-74
2023/05/24 09:21:46;;;;;;;2.72;1.40;;;;;;;25.40;36.29;102350.31;5009547;28;99443;-74
2023/05/24 09:24:12;;;;;;;3.55;1.48;;;;;;;25.40;36.34;102351.16;4997350;28;97085;-74
2023/05/24 09:26:39;;;;;;;2.40;1.63;;;;;;;25.40;36.43;102344.81;5012083;28;96727;-74
2023/05/24 09:29:07;;;;;;;2.33;1.30;;;;;;;25.40;36.39;102348.41;5012493;28;96857;-74
2023/05/24 09:31:34;;;;;;;2.65;1.52;;;;;;;25.41;36.34;102355.63;5012464;28;97183;-74
2023/05/24 09:34:01;;;;;;;3.53;1.40;;;;;;;25.41;36.37;102344.63;4997628;28;97357;-74
2023/05/24 09:36:31;;;;;;;2.33;1.48;;;;;;;25.40;36.57;102345.66;5012030;28;96647;-73
2023/05/24 09:39:09;;;;;;;4.57;1.55;;;;;;;25.41;36.55;102349.28;5027672;28;97120;-74
2023/05/24 09:41:36;;;;;;;2.17;1.15;;;;;;;25.40;36.47;102350.31;5011159;28;98751;-74
2023/05/24 09:44:04;;;;;;;3.53;1.50;;;;;;;25.38;36.49;102339.47;4999875;28;96615;-74
2023/05/24 09:46:37;;;;;;;3.28;1.42;;;;;;;25.40;36.42;102333.81;5011159;28;96727;-74
2023/05/24 09:49:05;;;;;;;3.47;1.30;;;;;;;25.38;36.52;102344.97;5010841;28;97015;-74
2023/05/24 09:51:36;;;;;;;2.75;1.50;;;;;;;25.40;36.66;102344.81;5010319;28;97211;-74
2023/05/24 09:54:04;;;;;;;2.65;1.50;;;;;;;25.39;36.29;102337.59;5009381;28;96743;-74
2023/05/24 09:56:32;;;;;;;2.92;1.30;;;;;;;25.40;36.34;102342.91;5011372;28;96790;-74
2023/05/24 09:59:04;;;;;;;3.03;1.42;;;;;;;25.39;36.45;102341.19;5011291;28;97225;-74
2023/05/24 10:01:32;;;;;;;2.75;1.42;;;;;;;25.39;36.28;102348.59;5009736;28;97779;-74
2023/05/24 10:04:01;;;;;;;2.78;1.35;;;;;;;25.39;36.28;102348.59;5009246;28;96810;-74
2023/05/24 10:06:35;;;;;;;2.53;1.30;;;;;;;25.39;36.31;102343.09;5009325;28;96826;-74
2023/05/24 10:09:07;;;;;;;3.78;1.38;;;;;;;25.38;36.31;102350.47;5003991;28;96829;-74
2023/05/24 10:11:36;;;;;;;1.90;1.20;;;;;;;25.39;36.47;102348.59;5008739;28;96745;-73
2023/05/24 10:14:08;;;;;;;3.15;1.30;;;;;;;25.39;36.43;102349.44;5011127;28;96663;-74
2023/05/24 10:16:37;;;;;;;2.38;1.45;;;;;;;25.39;36.41;102345.84;5009424;28;96800;-74
2023/05/24 10:19:05;;;;;;;2.65;1.35;;;;;;;25.39;36.73;102343.09;5009484;28;96993;-74
2023/05/24 10:21:39;;;;;;;3.33;1.77;;;;;;;25.40;36.61;102355.81;5009188;28;97771;-74
2023/05/24 10:24:09;;;;;;;3.70;1.60;;;;;;;25.39;36.28;102348.59;5010559;28;97110;-74
2023/05/24 10:26:38;;;;;;;3.55;1.77;;;;;;;25.39;36.40;102348.59;5010469;28;97857;-74
2023/05/24 10:29:09;;;;;;;2.38;1.30;;;;;;;25.40;36.33;102350.31;5010534;28;96845;-74
2023/05/24 10:31:40;;;;;;;5.28;1.65;;;;;;;25.40;36.43;102350.31;5011647;28;97197;-74
2023/05/24 10:34:08;;;;;;;2.65;1.38;;;;;;;25.39;36.43;102348.59;5010124;28;96924;-74
2023/05/24 10:36:36;;;;;;;2.72;1.48;;;;;;;25.39;36.65;102354.09;5009980;28;97179;-73
2023/05/24 10:39:03;;;;;;;2.78;1.63;;;;;;;25.40;36.54;102353.06;5010872;28;96748;-73
2023/05/24 10:41:38;;;;;;;2.47;1.30;;;;;;;25.40;36.36;102348.41;5008807;28;97179;-73
2023/05/24 10:44:11;;;;;;;4.20;1.67;;;;;;;25.40;36.28;102353.06;5008648;28;97117;-73
2023/05/24 10:47:15;;;;;;;3.88;1.50;;;;;;;25.41;36.37;102352.03;5008700;28;97248;-74
2023/05/24 10:49:56;;;;;;;2.35;1.75;;;;;;;25.39;36.14;102362.34;5003278;28;97134;-74
2023/05/24 10:52:34;;;;;;;3.90;1.50;;;;;;;25.38;36.41;102360.63;5020228;28;96987;-74
2023/05/24 10:55:06;;;;;;;3.42;1.33;;;;;;;25.38;36.41;102352.38;5010177;28;97268;-74
2023/05/24 10:57:34;;;;;;;2.38;1.40;;;;;;;25.38;36.53;102347.72;5018764;28;97652;-74
2023/05/24 11:00:28;;;;;;;4.13;1.75;;;;;;;25.39;36.38;102345.84;5011240;28;96744;-74
2023/05/24 11:03:09;;;;;;;3.22;1.60;;;;;;;25.38;36.35;102349.63;5008096;28;99927;-74
2023/05/24 11:05:45;;;;;;;1.92;1.23;;;;;;;25.37;36.35;102350.66;5008705;28;97057;-74
2023/05/24 11:08:12;;;;;;;3.20;1.30;;;;;;;25.37;36.42;102350.66;4995791;28;96984;-74
2023/05/24 11:10:40;;;;;;;2.90;1.67;;;;;;;25.37;36.22;102334.13;5008365;28;97077;-73
2023/05/24 11:13:09;;;;;;;2.65;1.55;;;;;;;25.37;36.42;102342.41;5005874;28;96674;-75
2023/05/24 11:15:36;;;;;;;3.40;1.60;;;;;;;25.38;36.46;102333.97;5009192;28;97476;-74
2023/05/24 11:18:07;;;;;;;4.15;1.48;;;;;;;25.39;36.21;102334.84;5005718;28;96770;-74
2023/05/24 11:20:35;;;;;;;3.03;1.45;;;;;;;25.39;36.49;102337.59;5000617;28;96978;-74
2023/05/24 11:23:03;;;;;;;3.17;1.50;;;;;;;25.40;36.22;102333.81;5007714;28;97268;-75
2023/05/24 11:25:31;;;;;;;3.80;1.70;;;;;;;25.39;36.39;102338.44;5009663;28;97939;-74
2023/05/24 11:27:58;;;;;;;4.03;1.60;;;;;;;25.40;36.33;102334.66;5008116;28;96961;-74
2023/05/24 11:30:25;;;;;;;3.65;1.90;;;;;;;25.41;36.37;102335.53;5010601;28;97043;-75